Flight Track Log - Related Links

Times and Time Zones

All times are in EDT time to prevent confusion due to time zone crossing. See the DAL5846 flight status page for this flight to view local times or setup timezone preferences in your user account.

Time Position Orientation Groundspeed Altitude Reporting Facility
EDT Latitude Longitude Course Direction KTS MPH feet Rate Location/Type
Thu 07:11:18 PM 39.7167 -86.2667 38° Northeast 141 162 1,900  Level Indianapolis TRACON
Thu 07:12:06 PM 39.7500 -86.2333 38° Northeast 182 209 3,000 2,000 Climbing Indianapolis TRACON
Thu 07:13:30 PM 39.7653 -86.1219 80° East 225 259 6,300 2,589 Climbing Indianapolis Center
Thu 07:14:32 PM 39.7789 -86.0239 80° East 263 303 9,300 2,806 Climbing Indianapolis Center
Thu 07:15:34 PM 39.7933 -85.9183 80° East 292 336 12,100 2,661 Climbing Indianapolis Center
Thu 07:16:36 PM 39.8083 -85.8089 80° East 307 353 14,800 2,323 Climbing Indianapolis Center
Thu 07:17:38 PM 39.8236 -85.6942 80° East 322 371 16,900 1,645 Climbing Indianapolis Center
Thu 07:18:40 PM 39.8403 -85.5678 80° East 353 406 18,200 1,548 Climbing Indianapolis Center
Thu 07:19:42 PM 39.8636 -85.3981 80° East 400 460 20,100 1,742 Climbing Indianapolis Center
Thu 07:20:44 PM 39.8817 -85.2497 81° East 415 478 21,800 1,597 Climbing Indianapolis Center
Thu 07:21:46 PM 39.8911 -85.0958 85° East 425 489 23,400 1,355 Climbing Indianapolis Center
Thu 07:22:48 PM 39.8997 -84.9350 86° East 445 512 24,600 1,065 Climbing Indianapolis Center
Thu 07:23:50 PM 39.9147 -84.7492 84° East 470 541 25,600 1,161 Climbing Indianapolis Center
Thu 07:24:52 PM 39.9878 -84.6075 56° Northeast 464 534 27,000 1,161 Climbing Indianapolis Center
Thu 07:25:54 PM 40.0672 -84.4706 53° Northeast 469 540 28,000 871 Climbing Indianapolis Center
Thu 07:26:56 PM 40.1494 -84.3281 53° Northeast 480 552 28,800 919 Climbing Indianapolis Center
Thu 07:27:58 PM 40.2336 -84.1828 53° Northeast 492 566 29,900 1,210 Climbing Indianapolis Center
Thu 07:29:00 PM 40.3156 -84.0389 53° Northeast 489 563 31,300 1,258 Climbing Indianapolis Center
Thu 07:30:02 PM 40.3969 -83.8972 53° Northeast 481 554 32,500 1,113 Climbing Indianapolis Center
Thu 07:31:04 PM 40.4897 -83.7328 53° Northeast 474 545 33,600 774 Climbing Indianapolis Center
Thu 07:32:06 PM 40.5703 -83.5917 53° Northeast 476 548 34,100 484 Climbing Indianapolis Center
Thu 07:33:08 PM 40.6519 -83.4458 54° Northeast 487 560 34,600 435 Climbing Indianapolis Center
Thu 07:34:10 PM 40.7319 -83.3008 54° Northeast 483 556 35,000 194 Climbing Indianapolis Center
Thu 07:35:12 PM 40.8139 -83.1536 54° Northeast 479 551 35,000  Level Indianapolis Center
Thu 07:36:14 PM 40.8525 -82.9853 73° East 484 557 35,000  Level Indianapolis Center
Thu 07:37:16 PM 40.8694 -82.8072 83° East 485 558 35,000  Level Indianapolis Center
Thu 07:38:00 PM 40.8819 -82.6647 83° East 480 552 35,000  Level Cleveland Center
Thu 07:39:00 PM 40.8975 -82.4867 83° East 480 552 35,000  Level Cleveland Center
Thu 07:40:00 PM 40.9128 -82.3250 83° East 480 552 35,000  Level Cleveland Center
Thu 07:41:00 PM 40.9300 -82.1469 83° East 485 558 35,000  Level Cleveland Center
Thu 07:42:00 PM 40.9447 -81.9631 84° East 491 565 35,000  Level Cleveland Center
Thu 07:43:00 PM 40.9614 -81.7792 83° East 499 574 35,000  Level Cleveland Center
Thu 07:44:00 PM 40.9758 -81.5925 84° East 499 574 35,000  Level Cleveland Center
Thu 07:45:00 PM 40.9919 -81.4083 83° East 499 574 35,000  Level Cleveland Center
Thu 07:46:00 PM 41.0075 -81.2242 84° East 504 580 35,000  Level Cleveland Center
Thu 07:47:00 PM 41.0253 -81.0236 83° East 499 574 35,000  Level Cleveland Center
Thu 07:48:00 PM 41.0403 -80.8419 84° East 499 574 35,000  Level Cleveland Center
Thu 07:49:00 PM 41.0553 -80.6519 84° East 499 574 35,000  Level Cleveland Center
Thu 07:50:00 PM 41.0697 -80.4675 84° East 499 574 35,000  Level Cleveland Center
Thu 07:51:00 PM 41.0819 -80.2828 85° East 499 574 35,000  Level Cleveland Center
Thu 07:52:00 PM 41.0939 -80.0928 85° East 499 574 35,000  Level Cleveland Center
Thu 07:53:00 PM 41.1075 -79.9081 84° East 499 574 35,000  Level Cleveland Center
Thu 07:54:00 PM 41.1208 -79.7231 84° East 499 574 35,000  Level Cleveland Center
Thu 07:55:00 PM 41.1319 -79.5383 85° East 499 574 35,000  Level Cleveland Center
Thu 07:56:00 PM 41.1447 -79.3561 85° East 499 574 35,000  Level Cleveland Center
Thu 07:57:00 PM 41.1550 -79.1711 86° East 504 580 35,000  Level Cleveland Center
Thu 07:58:00 PM 41.1672 -78.9833 85° East 504 580 35,000  Level Cleveland Center
Thu 07:59:00 PM 41.1811 -78.7981 84° East 499 574 35,000  Level Cleveland Center
Thu 08:00:00 PM 41.1906 -78.6158 86° East 499 574 35,000 -50 Level Cleveland Center
Thu 08:01:00 PM 41.2017 -78.4278 85° East 499 574 34,900 -765 Descending Cleveland Center
Thu 08:02:29 PM 41.2119 -78.1631 87° East 511 588 33,100 -765 Descending New York Center
Thu 08:03:29 PM 41.1958 -77.9875 97° East 499 574 33,000 -51 Descending New York Center
Thu 08:04:27 PM 41.1731 -77.8114 100° East 488 562 33,000  Level New York Center
Thu 08:05:27 PM 41.1497 -77.6381 100° East 478 550 33,000  Level New York Center
Thu 08:06:27 PM 41.1286 -77.4622 99° East 478 550 33,000  Level New York Center
Thu 08:07:29 PM 41.1081 -77.3058 100° East 478 550 33,000 -800 Level New York Center
Thu 08:08:27 PM 41.0822 -77.1300 101° East 473 544 31,400 -2,085 Descending New York Center
Thu 08:09:27 PM 41.0606 -76.9519 99° East 478 550 28,900 -2,479 Descending New York Center
Thu 08:10:28 PM 41.0378 -76.7875 100° East 471 542 26,400 -2,361 Descending New York Center
Thu 08:11:29 PM 41.0122 -76.6311 102° East 449 517 24,100 -2,269 Descending New York Center
Thu 08:12:27 PM 40.9775 -76.4853 107° East 430 495 21,900 -2,100 Descending New York Center
Thu 08:13:29 PM 40.9447 -76.3478 107° East 405 466 19,900 -2,132 Descending New York Center
Thu 08:14:28 PM 40.9117 -76.2022 107° East 386 444 17,600 -1,800 Descending New York Center
Thu 08:15:29 PM 40.8800 -76.0733 108° East 369 425 16,300 -1,289 Descending New York Center
Thu 08:16:29 PM 40.8503 -75.9478 107° East 364 419 15,000 -1,231 Descending New York Center
Thu 08:17:26 PM 40.8236 -75.8414 108° East 352 405 13,900 -1,017 Descending New York Center
Thu 08:18:27 PM 40.7917 -75.7103 108° East 352 405 13,000 -443 Descending New York Center
Thu 08:19:28 PM 40.7611 -75.5931 109° East 347 399 13,000  Level New York Center
Thu 08:20:29 PM 40.7322 -75.4842 109° East 340 391 13,000 -99 Level New York Center
Thu 08:21:29 PM 40.7097 -75.3675 104° East 335 386 12,800 -1,068 Descending New York Center
Thu 08:22:27 PM 40.6853 -75.2456 105° East 315 362 10,900 -1,424 Descending New York Center
Thu 08:23:27 PM 40.6619 -75.1400 106° East 307 353 10,000 -446 Descending New York Center
Thu 08:24:28 PM 40.6236 -75.0500 119° Southeast 302 348 10,000  Level New York Center
Thu 08:25:29 PM 40.5853 -74.9603 119° Southeast 296 341 10,000 50 Level New York Center
Thu 08:26:27 PM 40.5367 -74.8564 122° Southeast 296 341 10,100 58 Climbing New York Center
Thu 08:27:13 PM 40.5000 -74.7833 123° Southeast 312 359 10,100  Level New York TRACON
Thu 08:28:13 PM 40.4667 -74.6833 114° Southeast 312 359 10,100 -50 Level New York TRACON
Thu 08:29:13 PM 40.4333 -74.5833 114° Southeast 311 358 10,000 -53 Descending New York TRACON
Thu 08:30:07 PM 40.4500 -74.4667 79° East 313 360 10,000 -684 Level New York TRACON
Thu 08:31:07 PM 40.4667 -74.3667 78° East 305 351 8,700 -1,450 Descending New York TRACON
Thu 08:32:07 PM 40.5000 -74.2667 66° East 293 337 7,100 -950 Descending New York TRACON
Thu 08:33:07 PM 40.5333 -74.1667 66° East 291 335 6,800 -1,095 Descending New York TRACON
Thu 08:34:13 PM 40.5833 -74.0833 52° Northeast 272 313 4,800 -1,714 Descending New York TRACON
Thu 08:35:13 PM 40.6333 -74.0167 45° Northeast 265 305 3,200 -1,211 Descending New York TRACON
Thu 08:36:07 PM 40.6833 -73.9667 37° Northeast 243 280 2,500 -632 Descending New York TRACON
Thu 08:37:07 PM 40.7167 -73.9167 49° Northeast 182 209 2,000 -714 Descending New York TRACON
Thu 08:38:13 PM 40.7333 -73.8500 72° East 153 176 1,000 -762 Descending New York TRACON
Thu 08:39:13 PM 40.7667 -73.8500 360° North 135 155 400 -600 Descending New York TRACON

Login

Don't have an account? Register now (free) for customized features, flight alerts, and more!